createdAt,value
2018-12-06T00:01:14.886Z,11.57
2018-12-06T00:03:42.502Z,11.80
2018-12-06T00:06:10.095Z,11.77
2018-12-06T00:08:37.707Z,11.27
2018-12-06T00:11:05.295Z,11.50
2018-12-06T00:13:32.832Z,11.17
2018-12-06T00:16:00.440Z,12.87
2018-12-06T00:18:28.053Z,11.80
2018-12-06T00:20:55.928Z,10.80
2018-12-06T00:23:23.502Z,11.90
2018-12-06T00:25:51.175Z,12.70
2018-12-06T00:28:19.095Z,11.80
2018-12-06T00:30:46.692Z,11.43
2018-12-06T00:33:14.297Z,11.20
2018-12-06T00:35:41.910Z,11.87
2018-12-06T00:38:09.453Z,11.50
2018-12-06T00:40:37.048Z,10.80
2018-12-06T00:43:04.643Z,11.13
2018-12-06T00:45:32.556Z,11.20
2018-12-06T00:48:00.395Z,11.60
2018-12-06T00:50:28.002Z,11.30
2018-12-06T00:52:55.545Z,12.00
2018-12-06T00:55:23.279Z,11.90
2018-12-06T00:57:51.165Z,12.50
2018-12-06T01:00:18.867Z,11.23
2018-12-06T01:02:46.426Z,11.27
2018-12-06T01:05:14.052Z,12.80
2018-12-06T01:07:41.595Z,11.90
2018-12-06T01:10:09.315Z,11.30
2018-12-06T01:12:37.060Z,12.23
2018-12-06T01:15:05.253Z,11.87
2018-12-06T01:17:32.894Z,12.10
2018-12-06T01:20:00.498Z,12.23
2018-12-06T01:22:28.091Z,14.37
2018-12-06T01:24:55.677Z,12.00
2018-12-06T01:27:23.297Z,11.80
2018-12-06T01:29:50.841Z,12.30
2018-12-06T01:32:18.439Z,11.50
2018-12-06T01:34:46.122Z,11.37
2018-12-06T01:37:13.694Z,11.67
2018-12-06T01:39:41.266Z,12.77
2018-12-06T01:42:08.829Z,11.93
2018-12-06T01:44:36.432Z,12.23
2018-12-06T01:47:04.060Z,11.90
2018-12-06T01:49:31.858Z,11.87
2018-12-06T01:51:59.459Z,11.50
2018-12-06T01:54:27.026Z,12.07
2018-12-06T01:56:54.606Z,11.43
2018-12-06T01:59:22.231Z,11.60
2018-12-06T02:01:49.859Z,10.97
2018-12-06T02:04:17.441Z,12.10
2018-12-06T02:06:45.304Z,11.93
2018-12-06T02:09:12.887Z,12.07
2018-12-06T02:11:40.649Z,12.00
2018-12-06T02:14:08.317Z,11.90
2018-12-06T02:16:35.912Z,11.67
2018-12-06T02:19:03.452Z,11.77
2018-12-06T02:21:31.008Z,11.60
2018-12-06T02:23:58.589Z,11.83
2018-12-06T02:26:26.182Z,11.90
2018-12-06T02:28:53.744Z,12.37
2018-12-06T02:31:21.320Z,11.20
2018-12-06T02:33:49.205Z,11.77
2018-12-06T02:36:17.043Z,11.80
2018-12-06T02:38:44.688Z,11.20
2018-12-06T02:41:12.279Z,12.20
2018-12-06T02:43:40.152Z,12.73
2018-12-06T02:46:07.767Z,11.70
2018-12-06T02:48:35.416Z,11.97
2018-12-06T02:51:02.989Z,12.60
2018-12-06T02:53:30.915Z,11.87
2018-12-06T02:55:58.468Z,11.60
2018-12-06T02:58:26.054Z,12.73
2018-12-06T03:00:53.631Z,13.07
2018-12-06T03:03:21.189Z,12.10
2018-12-06T03:05:48.763Z,11.30
2018-12-06T03:08:16.361Z,11.50
2018-12-06T03:10:43.914Z,11.90
2018-12-06T03:13:11.553Z,11.40
2018-12-06T03:15:39.095Z,12.30
2018-12-06T03:18:06.763Z,11.80
2018-12-06T03:20:34.405Z,11.80
2018-12-06T03:23:01.999Z,12.10
2018-12-06T03:25:29.568Z,12.50
2018-12-06T03:27:57.178Z,11.20
2018-12-06T03:30:24.743Z,11.40
2018-12-06T03:32:52.387Z,11.77
2018-12-06T03:35:20.281Z,11.40
2018-12-06T03:37:47.851Z,11.20
2018-12-06T03:40:15.390Z,12.87
2018-12-06T03:42:43.015Z,12.80
2018-12-06T03:45:10.785Z,12.20
2018-12-06T03:47:38.368Z,12.50
2018-12-06T03:50:06.053Z,11.40
2018-12-06T03:52:33.919Z,11.80
2018-12-06T03:55:02.191Z,11.03
2018-12-06T03:57:29.750Z,12.30
2018-12-06T03:59:57.311Z,11.47
2018-12-06T04:02:24.926Z,11.00
2018-12-06T04:04:52.527Z,11.90
2018-12-06T04:07:20.388Z,11.23
2018-12-06T04:09:48.275Z,12.10
2018-12-06T04:12:15.881Z,10.70
2018-12-06T04:14:43.428Z,11.40
2018-12-06T04:17:11.049Z,11.10
2018-12-06T04:19:38.625Z,10.97
2018-12-06T04:22:06.188Z,11.73
2018-12-06T04:24:33.760Z,11.40
2018-12-06T04:27:01.387Z,13.10
2018-12-06T04:29:28.986Z,11.93
2018-12-06T04:31:56.580Z,10.57
2018-12-06T04:34:24.159Z,11.40
2018-12-06T04:36:51.794Z,10.67
2018-12-06T04:39:19.387Z,10.60
2018-12-06T04:41:47.133Z,11.10
2018-12-06T04:44:15.137Z,11.67
2018-12-06T04:46:42.755Z,11.47
2018-12-06T04:49:10.360Z,10.77
2018-12-06T04:51:38.976Z,10.80
2018-12-06T04:54:06.568Z,10.87
2018-12-06T04:56:34.151Z,10.87
2018-12-06T04:59:01.725Z,11.00
2018-12-06T05:01:29.294Z,10.77
2018-12-06T05:03:57.000Z,11.60
2018-12-06T05:06:24.935Z,11.03
2018-12-06T05:08:52.555Z,10.80
2018-12-06T05:11:20.167Z,11.50
2018-12-06T05:13:47.777Z,11.00
2018-12-06T05:16:15.334Z,11.03
2018-12-06T05:18:42.925Z,11.37
2018-12-06T05:21:10.548Z,10.13
2018-12-06T05:23:38.235Z,10.60
2018-12-06T05:26:05.854Z,10.77
2018-12-06T05:28:33.523Z,10.80
2018-12-06T05:31:01.156Z,11.20
2018-12-06T05:33:28.798Z,11.03
2018-12-06T05:35:56.353Z,10.83
2018-12-06T05:38:23.934Z,10.70
2018-12-06T05:40:51.830Z,11.67
2018-12-06T05:43:19.470Z,11.37
2018-12-06T05:45:47.113Z,11.77
2018-12-06T05:48:15.188Z,12.00
2018-12-06T05:50:42.785Z,11.73
2018-12-06T05:53:10.406Z,12.40
2018-12-06T05:55:38.074Z,14.90
2018-12-06T05:58:05.712Z,11.40
2018-12-06T06:00:33.448Z,11.17
2018-12-06T06:03:01.062Z,12.00
2018-12-06T06:05:28.653Z,12.40
2018-12-06T06:07:56.282Z,12.23
2018-12-06T06:10:23.844Z,11.20
2018-12-06T06:12:51.453Z,11.20
2018-12-06T06:15:19.025Z,11.13
2018-12-06T06:17:46.621Z,11.37
2018-12-06T06:20:14.201Z,12.20
2018-12-06T06:22:41.915Z,11.17
2018-12-06T06:25:09.582Z,11.50
2018-12-06T06:27:37.193Z,11.60
2018-12-06T06:30:06.218Z,11.60
2018-12-06T06:32:33.791Z,11.30
2018-12-06T06:35:01.437Z,11.10
2018-12-06T06:37:29.114Z,11.13
2018-12-06T06:39:56.707Z,11.50
2018-12-06T06:42:24.327Z,11.37
2018-12-06T06:44:51.881Z,10.93
2018-12-06T06:47:19.482Z,11.73
2018-12-06T06:49:47.046Z,11.57
2018-12-06T06:52:14.642Z,11.60
2018-12-06T06:54:42.522Z,10.90
2018-12-06T06:57:10.316Z,10.60
2018-12-06T06:59:38.250Z,11.63
2018-12-06T07:02:06.187Z,10.13
2018-12-06T07:04:33.826Z,10.77
2018-12-06T07:07:01.436Z,11.43
2018-12-06T07:09:29.029Z,11.10
2018-12-06T07:11:56.754Z,18.70
2018-12-06T07:14:24.339Z,13.33
2018-12-06T07:16:52.049Z,11.90
2018-12-06T07:19:19.643Z,11.00
2018-12-06T07:21:47.311Z,10.73
2018-12-06T07:24:14.932Z,10.83
2018-12-06T07:26:42.522Z,11.30
2018-12-06T07:29:10.186Z,11.10
2018-12-06T07:31:37.807Z,12.70
2018-12-06T07:34:05.388Z,10.50
2018-12-06T07:36:32.982Z,11.03
2018-12-06T07:39:00.626Z,27.17
2018-12-06T07:41:28.202Z,12.63
2018-12-06T07:43:55.804Z,11.30
2018-12-06T07:46:23.388Z,10.77
2018-12-06T07:48:51.005Z,10.90
2018-12-06T07:51:18.570Z,11.10
2018-12-06T07:53:46.529Z,11.37
2018-12-06T07:56:14.131Z,11.60
2018-12-06T07:58:41.733Z,12.40
2018-12-06T08:01:09.688Z,11.00
2018-12-06T08:03:37.338Z,10.63
2018-12-06T08:06:05.091Z,11.17
2018-12-06T08:08:32.679Z,10.93
2018-12-06T08:11:00.293Z,10.67
2018-12-06T08:13:27.934Z,10.80
2018-12-06T08:15:55.512Z,10.80
2018-12-06T08:18:23.106Z,11.40
2018-12-06T08:20:50.654Z,11.13
2018-12-06T08:23:18.315Z,10.47
2018-12-06T08:25:45.939Z,10.43
2018-12-06T08:28:13.589Z,10.83
2018-12-06T08:30:42.132Z,10.60
2018-12-06T08:33:10.274Z,11.07
2018-12-06T08:35:37.942Z,13.03
2018-12-06T08:38:05.721Z,10.83
2018-12-06T08:40:33.369Z,10.80
2018-12-06T08:43:01.007Z,11.80
2018-12-06T08:45:28.665Z,10.80
2018-12-06T08:47:56.235Z,11.27
2018-12-06T08:50:23.818Z,11.17
2018-12-06T08:52:51.461Z,11.33
2018-12-06T08:55:19.053Z,10.43
2018-12-06T08:57:46.646Z,11.77
2018-12-06T09:00:14.218Z,11.07
2018-12-06T09:02:42.041Z,10.70
2018-12-06T09:05:09.662Z,10.67
2018-12-06T09:07:37.223Z,11.10
2018-12-06T09:10:06.215Z,11.17
2018-12-06T09:12:33.848Z,10.73
2018-12-06T09:15:01.562Z,10.77
2018-12-06T09:17:29.121Z,11.20
2018-12-06T09:19:56.703Z,10.53
2018-12-06T09:22:24.524Z,10.43
2018-12-06T09:24:52.295Z,10.30
2018-12-06T09:27:19.902Z,10.40
2018-12-06T09:29:47.487Z,11.00
2018-12-06T09:32:15.092Z,10.43
2018-12-06T09:34:42.690Z,10.37
2018-12-06T09:37:10.291Z,10.20
2018-12-06T09:39:37.893Z,12.00
2018-12-06T09:42:05.553Z,10.50
2018-12-06T09:44:33.142Z,17.27
2018-12-06T09:47:00.975Z,10.80
2018-12-06T09:49:28.605Z,11.07
2018-12-06T09:51:56.536Z,10.70
2018-12-06T09:54:24.102Z,10.50
2018-12-06T09:56:51.735Z,11.30
2018-12-06T09:59:19.308Z,10.10
2018-12-06T10:01:46.940Z,10.53
2018-12-06T10:04:14.715Z,10.20
2018-12-06T10:06:42.343Z,10.50
2018-12-06T10:09:09.900Z,10.60
2018-12-06T10:11:37.477Z,11.10
2018-12-06T10:14:05.052Z,10.63
2018-12-06T10:16:32.682Z,10.13
2018-12-06T10:19:00.401Z,10.73
2018-12-06T10:21:28.006Z,10.30
2018-12-06T10:23:55.564Z,10.70
2018-12-06T10:26:23.162Z,10.33
2018-12-06T10:28:50.735Z,10.30
2018-12-06T10:31:18.448Z,10.30
2018-12-06T10:33:45.992Z,10.80
2018-12-06T10:36:13.614Z,10.93
2018-12-06T10:38:41.202Z,10.50
2018-12-06T10:41:08.803Z,11.10
2018-12-06T10:43:36.406Z,10.20
2018-12-06T10:46:04.174Z,11.07
2018-12-06T10:48:31.768Z,11.13
2018-12-06T10:51:11.337Z,10.07
2018-12-06T10:53:38.971Z,10.23
2018-12-06T10:56:06.575Z,10.30
2018-12-06T10:58:34.127Z,10.03
2018-12-06T11:01:08.457Z,10.70
2018-12-06T11:03:38.346Z,11.23
2018-12-06T11:06:05.969Z,10.90
2018-12-06T11:08:33.526Z,11.53
2018-12-06T11:11:01.102Z,11.00
2018-12-06T11:13:28.675Z,10.80
2018-12-06T11:15:56.314Z,11.10
2018-12-06T11:18:24.196Z,10.63
2018-12-06T11:21:18.941Z,11.20
2018-12-06T11:23:47.726Z,10.23
2018-12-06T11:26:15.465Z,10.83
2018-12-06T11:28:43.018Z,11.00
2018-12-06T11:31:10.867Z,11.80
2018-12-06T11:33:38.426Z,10.90
2018-12-06T11:36:05.998Z,11.40
2018-12-06T11:38:33.660Z,10.87
2018-12-06T11:41:01.313Z,10.67
2018-12-06T11:43:28.976Z,10.50
2018-12-06T11:45:56.892Z,11.27
2018-12-06T11:48:27.016Z,10.83
2018-12-06T11:50:54.217Z,10.73
2018-12-06T11:53:22.072Z,11.83
2018-12-06T11:55:49.659Z,11.37
2018-12-06T11:58:17.243Z,11.43
2018-12-06T12:00:44.867Z,11.90
2018-12-06T12:03:12.427Z,11.30
2018-12-06T12:05:40.068Z,11.20
2018-12-06T12:08:07.664Z,11.10
2018-12-06T12:10:35.624Z,11.23
2018-12-06T12:13:03.273Z,11.30
2018-12-06T12:15:31.369Z,11.40
2018-12-06T12:17:59.016Z,11.03
2018-12-06T12:20:26.699Z,12.13
2018-12-06T12:22:54.448Z,10.60
2018-12-06T12:25:22.040Z,11.60
2018-12-06T12:27:49.588Z,11.80
2018-12-06T12:30:17.180Z,10.87
2018-12-06T12:32:44.794Z,11.20
2018-12-06T12:35:12.372Z,12.00
2018-12-06T12:37:39.929Z,11.10
2018-12-06T12:40:09.415Z,11.63
2018-12-06T12:42:37.295Z,10.67
2018-12-06T12:45:06.226Z,10.90
2018-12-06T12:47:34.059Z,12.20
2018-12-06T12:50:01.698Z,11.20
2018-12-06T12:52:29.350Z,12.50
2018-12-06T12:54:56.938Z,11.37
2018-12-06T12:57:24.504Z,11.93
2018-12-06T12:59:52.141Z,11.70
2018-12-06T13:02:19.730Z,11.63
2018-12-06T13:04:47.374Z,11.10
2018-12-06T13:07:15.052Z,11.80
2018-12-06T13:09:42.695Z,11.20
2018-12-06T13:12:10.379Z,11.97
2018-12-06T13:14:37.998Z,11.13
2018-12-06T13:17:05.611Z,11.30
2018-12-06T13:19:33.192Z,12.33
2018-12-06T13:22:00.993Z,12.27
2018-12-06T13:24:28.599Z,11.90
2018-12-06T13:26:56.250Z,12.60
2018-12-06T13:29:23.888Z,11.60
2018-12-06T13:31:51.456Z,12.87
2018-12-06T13:34:19.042Z,12.70
2018-12-06T13:36:46.632Z,12.13
2018-12-06T13:39:14.219Z,12.07
2018-12-06T13:41:41.799Z,11.63
2018-12-06T13:44:09.444Z,12.30
2018-12-06T13:46:37.569Z,12.20
2018-12-06T13:49:05.167Z,12.60
2018-12-06T13:51:33.286Z,13.00
2018-12-06T13:54:01.059Z,12.00
2018-12-06T13:56:28.668Z,11.80
2018-12-06T13:58:56.260Z,12.30
2018-12-06T14:01:24.004Z,12.20
2018-12-06T14:03:51.868Z,12.50
2018-12-06T14:06:19.467Z,11.70
2018-12-06T14:08:47.055Z,12.93
2018-12-06T14:11:15.009Z,12.17
2018-12-06T14:13:42.579Z,11.70
2018-12-06T14:16:10.565Z,12.93
2018-12-06T14:18:38.921Z,12.80
2018-12-06T14:21:06.521Z,13.27
2018-12-06T14:23:34.146Z,13.30
2018-12-06T14:26:01.827Z,13.87
2018-12-06T14:28:29.417Z,14.17
2018-12-06T14:30:57.076Z,13.20
2018-12-06T14:33:24.695Z,13.10
2018-12-06T14:35:52.401Z,14.50
2018-12-06T14:38:20.176Z,15.03
2018-12-06T14:40:47.760Z,14.60
2018-12-06T14:43:15.657Z,14.10
2018-12-06T14:45:43.440Z,14.07
2018-12-06T14:48:11.277Z,14.30
2018-12-06T14:50:38.871Z,13.30
2018-12-06T14:53:06.451Z,13.43
2018-12-06T14:55:34.586Z,13.73
2018-12-06T14:58:02.182Z,13.50
2018-12-06T15:00:29.827Z,14.33
2018-12-06T15:02:57.593Z,13.90
2018-12-06T15:05:25.168Z,13.20
2018-12-06T15:07:52.909Z,13.73
2018-12-06T15:10:20.467Z,13.27
2018-12-06T15:12:48.043Z,13.87
2018-12-06T15:15:15.643Z,12.77
2018-12-06T15:17:43.217Z,13.50
2018-12-06T15:20:10.772Z,12.97
2018-12-06T15:22:38.401Z,12.97
2018-12-06T15:25:06.628Z,13.30
2018-12-06T15:27:34.815Z,15.20
2018-12-06T15:30:02.430Z,12.90
2018-12-06T15:32:30.051Z,13.27
2018-12-06T15:34:57.689Z,14.30
2018-12-06T15:37:25.242Z,13.50
2018-12-06T15:39:52.847Z,13.97
2018-12-06T15:42:20.498Z,13.67
2018-12-06T15:44:48.091Z,14.80
2018-12-06T15:47:15.731Z,14.00
2018-12-06T15:49:43.364Z,14.70
2018-12-06T15:52:11.028Z,15.33
2018-12-06T15:54:38.920Z,14.27
2018-12-06T15:57:06.516Z,14.73
2018-12-06T15:59:34.157Z,15.00
2018-12-06T16:02:01.763Z,15.63
2018-12-06T16:04:29.449Z,15.17
2018-12-06T16:06:57.031Z,16.30
2018-12-06T16:09:24.687Z,17.33
2018-12-06T16:11:52.306Z,15.50
2018-12-06T16:14:19.888Z,16.70
2018-12-06T16:16:47.607Z,16.70
2018-12-06T16:19:15.417Z,16.03
2018-12-06T16:21:43.060Z,16.90
2018-12-06T16:24:10.873Z,17.67
2018-12-06T16:26:38.502Z,17.17
2018-12-06T16:29:06.115Z,17.27
2018-12-06T16:31:33.755Z,17.57
2018-12-06T16:34:01.420Z,18.60
2018-12-06T16:36:29.048Z,18.60
2018-12-06T16:38:57.066Z,18.20
2018-12-06T16:41:24.664Z,17.33
2018-12-06T16:43:52.399Z,19.37
2018-12-06T16:46:20.054Z,19.77
2018-12-06T16:48:47.713Z,19.57
2018-12-06T16:51:15.354Z,20.60
2018-12-06T16:53:43.031Z,18.60
2018-12-06T16:56:10.616Z,19.43
2018-12-06T16:58:38.214Z,20.97
2018-12-06T17:01:05.828Z,20.90
2018-12-06T17:03:33.486Z,20.20
2018-12-06T17:06:01.350Z,18.73
2018-12-06T17:08:29.237Z,20.60
2018-12-06T17:10:56.862Z,21.77
2018-12-06T17:13:24.423Z,20.80
2018-12-06T17:15:52.042Z,21.00
2018-12-06T17:18:19.631Z,22.43
2018-12-06T17:20:47.279Z,20.20
2018-12-06T17:23:14.902Z,21.47
2018-12-06T17:25:42.519Z,20.70
2018-12-06T17:28:10.100Z,21.60
2018-12-06T17:30:37.801Z,20.40
2018-12-06T17:33:05.468Z,22.00
2018-12-06T17:35:33.185Z,21.90
2018-12-06T17:38:00.795Z,21.80
2018-12-06T17:40:28.347Z,22.47
2018-12-06T17:42:55.972Z,21.00
2018-12-06T17:45:23.712Z,23.00
2018-12-06T17:47:51.633Z,23.00
2018-12-06T17:50:19.269Z,21.93
2018-12-06T17:52:46.921Z,22.57
2018-12-06T17:55:14.618Z,21.80
2018-12-06T17:57:42.306Z,22.23
2018-12-06T18:00:11.992Z,22.90
2018-12-06T18:02:39.615Z,21.70
2018-12-06T18:05:07.306Z,21.30
2018-12-06T18:07:34.901Z,21.13
2018-12-06T18:10:02.637Z,22.37
2018-12-06T18:12:30.683Z,22.43
2018-12-06T18:14:59.010Z,20.70
2018-12-06T18:17:26.667Z,22.07
2018-12-06T18:19:54.381Z,21.40
2018-12-06T18:22:22.296Z,20.97
2018-12-06T18:24:50.124Z,22.40
2018-12-06T18:27:17.813Z,21.03
2018-12-06T18:29:45.496Z,22.33
2018-12-06T18:32:13.188Z,21.43
2018-12-06T18:34:41.450Z,20.87
2018-12-06T18:37:09.262Z,21.67
2018-12-06T18:39:36.882Z,21.30
2018-12-06T18:42:04.745Z,21.90
2018-12-06T18:44:32.557Z,20.47
2018-12-06T18:47:00.247Z,21.20
2018-12-06T18:49:27.952Z,22.50
2018-12-06T18:51:55.840Z,20.33
2018-12-06T18:54:23.783Z,21.87
2018-12-06T18:56:51.462Z,23.30
2018-12-06T18:59:19.078Z,21.80
2018-12-06T19:01:46.829Z,21.87
2018-12-06T19:04:14.884Z,22.40
2018-12-06T19:06:42.738Z,22.43
2018-12-06T19:09:10.551Z,21.90
2018-12-06T19:11:38.208Z,21.03
2018-12-06T19:14:05.851Z,22.20
2018-12-06T19:16:33.697Z,21.90
2018-12-06T19:19:01.605Z,22.57
2018-12-06T19:21:29.322Z,23.07
2018-12-06T19:23:56.999Z,23.33
2018-12-06T19:26:24.573Z,22.50
2018-12-06T19:28:52.215Z,23.20
2018-12-06T19:31:19.759Z,22.57
2018-12-06T19:33:47.336Z,22.30
2018-12-06T19:36:15.029Z,21.80
2018-12-06T19:38:43.015Z,22.57
2018-12-06T19:41:10.654Z,23.70
2018-12-06T19:43:38.379Z,22.97
2018-12-06T19:46:06.014Z,23.33
2018-12-06T19:48:33.613Z,23.60
2018-12-06T19:51:01.458Z,23.27
2018-12-06T19:53:29.143Z,23.47
2018-12-06T19:55:56.757Z,22.67
2018-12-06T19:58:24.376Z,22.80
2018-12-06T20:00:52.404Z,22.67
2018-12-06T20:03:20.114Z,21.30
2018-12-06T20:05:47.755Z,22.97
2018-12-06T20:08:15.393Z,22.53
2018-12-06T20:10:42.993Z,21.70
2018-12-06T20:13:10.821Z,21.60
2018-12-06T20:15:38.574Z,21.83
2018-12-06T20:18:06.192Z,22.73
2018-12-06T20:20:34.040Z,21.73
2018-12-06T20:23:01.772Z,22.73
2018-12-06T20:25:29.366Z,22.70
2018-12-06T20:27:57.073Z,22.03
2018-12-06T20:30:24.704Z,23.33
2018-12-06T20:32:52.311Z,23.27
2018-12-06T20:35:20.333Z,23.10
2018-12-06T20:37:47.992Z,23.20
2018-12-06T20:40:15.700Z,22.90
2018-12-06T20:42:43.293Z,24.93
2018-12-06T20:45:10.879Z,26.47
2018-12-06T20:47:38.664Z,25.37
2018-12-06T20:50:06.385Z,26.47
2018-12-06T20:52:34.045Z,28.57
2018-12-06T20:55:01.611Z,26.37
2018-12-06T20:57:36.782Z,27.50
2018-12-06T20:59:58.946Z,26.70
2018-12-06T21:02:27.154Z,28.33
2018-12-06T21:04:54.921Z,26.77
2018-12-06T21:07:22.507Z,25.20
2018-12-06T21:09:50.394Z,27.63
2018-12-06T21:12:18.045Z,25.97
2018-12-06T21:14:45.681Z,26.10
2018-12-06T21:17:13.311Z,27.73
2018-12-06T21:19:40.873Z,26.27
2018-12-06T21:22:08.503Z,27.10
2018-12-06T21:24:36.130Z,26.00
2018-12-06T21:27:03.758Z,25.03
2018-12-06T21:29:31.586Z,25.40
2018-12-06T21:31:59.180Z,24.70
2018-12-06T21:34:26.764Z,25.37
2018-12-06T21:36:54.330Z,24.50
2018-12-06T21:39:22.035Z,24.00
2018-12-06T21:41:49.634Z,24.80
2018-12-06T21:44:17.277Z,25.40
2018-12-06T21:46:44.996Z,26.00
2018-12-06T21:49:12.705Z,26.60
2018-12-06T21:51:40.381Z,24.83
2018-12-06T21:54:08.273Z,24.80
2018-12-06T21:56:36.047Z,26.97
2018-12-06T21:59:03.628Z,26.30
2018-12-06T22:01:31.249Z,25.47
2018-12-06T22:03:59.032Z,28.20
2018-12-06T22:06:26.944Z,24.10
2018-12-06T22:08:54.893Z,25.90
2018-12-06T22:11:22.803Z,27.47
2018-12-06T22:13:50.590Z,25.77
2018-12-06T22:16:18.319Z,26.87
2018-12-06T22:18:46.159Z,26.00
2018-12-06T22:21:14.001Z,25.93
2018-12-06T22:23:41.637Z,26.17
2018-12-06T22:26:09.222Z,25.10
2018-12-06T22:28:36.854Z,25.80
2018-12-06T22:31:05.015Z,25.33
2018-12-06T22:33:33.055Z,25.80
2018-12-06T22:36:00.897Z,26.73
2018-12-06T22:38:34.105Z,24.70
2018-12-06T22:40:58.218Z,27.03
2018-12-06T22:43:25.760Z,25.10
2018-12-06T22:45:55.104Z,25.60
2018-12-06T22:48:23.324Z,25.70
2018-12-06T22:50:50.977Z,25.10
2018-12-06T22:53:18.575Z,26.17
2018-12-06T22:55:46.170Z,24.50
2018-12-06T22:58:13.723Z,23.43
2018-12-06T23:00:43.599Z,24.53
2018-12-06T23:03:11.293Z,23.77
2018-12-06T23:05:38.918Z,22.80
2018-12-06T23:08:06.978Z,23.73
2018-12-06T23:10:35.683Z,23.50
2018-12-06T23:13:03.397Z,22.53
2018-12-06T23:15:31.010Z,21.63
2018-12-06T23:17:58.957Z,21.97
2018-12-06T23:20:26.818Z,22.00
2018-12-06T23:22:54.405Z,22.83
2018-12-06T23:25:22.253Z,22.80
2018-12-06T23:27:49.833Z,22.00
2018-12-06T23:30:17.420Z,20.67
2018-12-06T23:32:45.037Z,21.50
2018-12-06T23:35:13.222Z,21.60
2018-12-06T23:37:40.830Z,20.10
2018-12-06T23:40:08.439Z,21.43
2018-12-06T23:42:36.077Z,20.03
2018-12-06T23:45:04.596Z,22.50
2018-12-06T23:47:32.187Z,19.93
2018-12-06T23:49:59.735Z,20.30
2018-12-06T23:52:27.477Z,20.40
2018-12-06T23:54:55.123Z,19.20
2018-12-06T23:57:22.704Z,20.50
2018-12-06T23:59:50.566Z,20.83
